sensor_id;sensor_type;location;lat;lon;timestamp;P1;durP1;ratioP1;P2;durP2;ratioP2
60257;SDS011;46115;44.484;11.314;2022-07-30T00:03:35;10.88;;;7.70;;
60257;SDS011;46115;44.484;11.314;2022-07-30T00:07:37;10.70;;;9.27;;
60257;SDS011;46115;44.484;11.314;2022-07-30T00:11:40;11.30;;;9.32;;
60257;SDS011;46115;44.484;11.314;2022-07-30T00:15:45;12.15;;;9.15;;
60257;SDS011;46115;44.484;11.314;2022-07-30T00:19:47;11.35;;;9.50;;
60257;SDS011;46115;44.484;11.314;2022-07-30T00:23:49;14.57;;;9.90;;
60257;SDS011;46115;44.484;11.314;2022-07-30T00:27:52;11.20;;;9.57;;
60257;SDS011;46115;44.484;11.314;2022-07-30T00:31:56;12.18;;;9.95;;
60257;SDS011;46115;44.484;11.314;2022-07-30T00:35:58;16.33;;;10.10;;
60257;SDS011;46115;44.484;11.314;2022-07-30T00:40:01;10.57;;;9.10;;
60257;SDS011;46115;44.484;11.314;2022-07-30T00:44:04;11.90;;;9.55;;
60257;SDS011;46115;44.484;11.314;2022-07-30T00:48:08;11.77;;;10.38;;
60257;SDS011;46115;44.484;11.314;2022-07-30T00:52:12;14.10;;;9.85;;
60257;SDS011;46115;44.484;11.314;2022-07-30T00:56:15;14.10;;;10.77;;
60257;SDS011;46115;44.484;11.314;2022-07-30T01:00:17;11.27;;;9.88;;
60257;SDS011;46115;44.484;11.314;2022-07-30T01:04:22;11.70;;;9.57;;
60257;SDS011;46115;44.484;11.314;2022-07-30T01:08:24;10.30;;;8.93;;
60257;SDS011;46115;44.484;11.314;2022-07-30T01:12:27;9.95;;;8.82;;
60257;SDS011;46115;44.484;11.314;2022-07-30T01:16:29;10.13;;;8.98;;
60257;SDS011;46115;44.484;11.314;2022-07-30T01:20:35;13.02;;;9.02;;
60257;SDS011;46115;44.484;11.314;2022-07-30T01:24:41;9.70;;;8.68;;
60257;SDS011;46115;44.484;11.314;2022-07-30T01:28:50;10.93;;;8.57;;
60257;SDS011;46115;44.484;11.314;2022-07-30T01:32:56;9.80;;;8.50;;
60257;SDS011;46115;44.484;11.314;2022-07-30T01:37:01;10.43;;;8.15;;
60257;SDS011;46115;44.484;11.314;2022-07-30T01:41:08;8.35;;;7.45;;
60257;SDS011;46115;44.484;11.314;2022-07-30T01:45:13;8.98;;;7.95;;
60257;SDS011;46115;44.484;11.314;2022-07-30T01:49:19;9.25;;;8.02;;
60257;SDS011;46115;44.484;11.314;2022-07-30T01:53:24;9.70;;;7.32;;
60257;SDS011;46115;44.484;11.314;2022-07-30T01:57:30;10.00;;;8.90;;
60257;SDS011;46115;44.484;11.314;2022-07-30T02:01:38;11.85;;;10.20;;
60257;SDS011;46115;44.484;11.314;2022-07-30T02:05:41;13.65;;;11.30;;
60257;SDS011;46115;44.484;11.314;2022-07-30T02:09:52;15.60;;;11.48;;
60257;SDS011;46115;44.484;11.314;2022-07-30T02:14:10;14.00;;;10.68;;
60257;SDS011;46115;44.484;11.314;2022-07-30T02:18:22;14.38;;;10.60;;
60257;SDS011;46115;44.484;11.314;2022-07-30T02:22:30;12.18;;;10.82;;
60257;SDS011;46115;44.484;11.314;2022-07-30T02:26:37;11.30;;;9.50;;
60257;SDS011;46115;44.484;11.314;2022-07-30T02:30:43;10.98;;;9.80;;
60257;SDS011;46115;44.484;11.314;2022-07-30T02:34:52;12.90;;;10.93;;
60257;SDS011;46115;44.484;11.314;2022-07-30T02:38:59;14.10;;;11.05;;
60257;SDS011;46115;44.484;11.314;2022-07-30T02:43:03;11.95;;;10.25;;
60257;SDS011;46115;44.484;11.314;2022-07-30T02:47:06;12.60;;;11.30;;
60257;SDS011;46115;44.484;11.314;2022-07-30T02:51:26;12.02;;;10.73;;
60257;SDS011;46115;44.484;11.314;2022-07-30T02:55:30;15.27;;;11.07;;
60257;SDS011;46115;44.484;11.314;2022-07-30T02:59:36;13.85;;;10.63;;
60257;SDS011;46115;44.484;11.314;2022-07-30T03:03:41;11.65;;;9.32;;
60257;SDS011;46115;44.484;11.314;2022-07-30T03:07:47;12.50;;;9.30;;
60257;SDS011;46115;44.484;11.314;2022-07-30T03:11:50;9.65;;;8.70;;
60257;SDS011;46115;44.484;11.314;2022-07-30T03:15:55;13.68;;;8.63;;
60257;SDS011;46115;44.484;11.314;2022-07-30T03:19:59;10.18;;;8.35;;
60257;SDS011;46115;44.484;11.314;2022-07-30T03:24:05;11.32;;;7.88;;
60257;SDS011;46115;44.484;11.314;2022-07-30T03:28:09;10.70;;;7.82;;
60257;SDS011;46115;44.484;11.314;2022-07-30T03:32:13;9.82;;;7.85;;
60257;SDS011;46115;44.484;11.314;2022-07-30T03:36:16;11.80;;;8.30;;
60257;SDS011;46115;44.484;11.314;2022-07-30T03:40:21;10.50;;;8.00;;
60257;SDS011;46115;44.484;11.314;2022-07-30T03:44:26;10.82;;;8.00;;
60257;SDS011;46115;44.484;11.314;2022-07-30T03:48:30;9.27;;;7.72;;
60257;SDS011;46115;44.484;11.314;2022-07-30T03:52:37;11.95;;;8.00;;
60257;SDS011;46115;44.484;11.314;2022-07-30T03:56:43;10.40;;;8.40;;
60257;SDS011;46115;44.484;11.314;2022-07-30T04:00:53;10.18;;;7.55;;
60257;SDS011;46115;44.484;11.314;2022-07-30T04:04:55;8.00;;;7.20;;
60257;SDS011;46115;44.484;11.314;2022-07-30T04:08:58;7.93;;;6.80;;
60257;SDS011;46115;44.484;11.314;2022-07-30T04:13:01;9.52;;;6.53;;
60257;SDS011;46115;44.484;11.314;2022-07-30T04:17:06;7.75;;;6.10;;
60257;SDS011;46115;44.484;11.314;2022-07-30T04:21:14;9.10;;;5.97;;
60257;SDS011;46115;44.484;11.314;2022-07-30T04:25:20;7.32;;;5.30;;
60257;SDS011;46115;44.484;11.314;2022-07-30T04:29:25;8.63;;;5.80;;
60257;SDS011;46115;44.484;11.314;2022-07-30T04:33:29;6.70;;;5.00;;
60257;SDS011;46115;44.484;11.314;2022-07-30T04:37:37;5.97;;;5.32;;
60257;SDS011;46115;44.484;11.314;2022-07-30T04:41:40;8.50;;;5.70;;
60257;SDS011;46115;44.484;11.314;2022-07-30T04:46:07;7.22;;;5.57;;
60257;SDS011;46115;44.484;11.314;2022-07-30T04:50:09;5.85;;;5.18;;
60257;SDS011;46115;44.484;11.314;2022-07-30T04:54:13;7.22;;;5.63;;
60257;SDS011;46115;44.484;11.314;2022-07-30T04:58:18;8.75;;;6.70;;
60257;SDS011;46115;44.484;11.314;2022-07-30T05:02:23;8.70;;;6.10;;
60257;SDS011;46115;44.484;11.314;2022-07-30T05:06:29;8.88;;;6.40;;
60257;SDS011;46115;44.484;11.314;2022-07-30T05:10:33;6.18;;;5.45;;
60257;SDS011;46115;44.484;11.314;2022-07-30T05:14:35;7.13;;;5.53;;
60257;SDS011;46115;44.484;11.314;2022-07-30T05:18:39;6.80;;;5.10;;
60257;SDS011;46115;44.484;11.314;2022-07-30T05:22:42;7.35;;;6.10;;
60257;SDS011;46115;44.484;11.314;2022-07-30T05:26:45;7.35;;;6.10;;
60257;SDS011;46115;44.484;11.314;2022-07-30T05:30:51;7.22;;;5.43;;
60257;SDS011;46115;44.484;11.314;2022-07-30T05:34:55;7.72;;;6.50;;
60257;SDS011;46115;44.484;11.314;2022-07-30T05:38:59;7.07;;;5.65;;
60257;SDS011;46115;44.484;11.314;2022-07-30T05:43:19;6.50;;;5.50;;
60257;SDS011;46115;44.484;11.314;2022-07-30T05:47:21;9.32;;;6.47;;
60257;SDS011;46115;44.484;11.314;2022-07-30T05:51:26;7.60;;;5.60;;
60257;SDS011;46115;44.484;11.314;2022-07-30T05:55:30;9.43;;;5.93;;
60257;SDS011;46115;44.484;11.314;2022-07-30T05:59:44;8.70;;;5.97;;
60257;SDS011;46115;44.484;11.314;2022-07-30T06:03:54;6.47;;;5.45;;
60257;SDS011;46115;44.484;11.314;2022-07-30T06:08:13;6.75;;;5.68;;
60257;SDS011;46115;44.484;11.314;2022-07-30T06:12:16;10.70;;;6.30;;
60257;SDS011;46115;44.484;11.314;2022-07-30T06:16:19;10.98;;;6.05;;
60257;SDS011;46115;44.484;11.314;2022-07-30T06:20:21;7.65;;;6.40;;
60257;SDS011;46115;44.484;11.314;2022-07-30T06:24:47;9.05;;;5.90;;
60257;SDS011;46115;44.484;11.314;2022-07-30T06:28:56;7.60;;;6.00;;
60257;SDS011;46115;44.484;11.314;2022-07-30T06:33:03;8.88;;;5.75;;
60257;SDS011;46115;44.484;11.314;2022-07-30T06:37:06;7.85;;;5.93;;
60257;SDS011;46115;44.484;11.314;2022-07-30T06:41:11;7.55;;;6.18;;
60257;SDS011;46115;44.484;11.314;2022-07-30T06:45:25;8.25;;;6.03;;
60257;SDS011;46115;44.484;11.314;2022-07-30T06:49:47;9.77;;;6.05;;
60257;SDS011;46115;44.484;11.314;2022-07-30T06:53:50;7.53;;;5.60;;
60257;SDS011;46115;44.484;11.314;2022-07-30T06:58:29;8.27;;;6.32;;
60257;SDS011;46115;44.484;11.314;2022-07-30T07:02:51;7.05;;;5.82;;
60257;SDS011;46115;44.484;11.314;2022-07-30T07:07:03;7.15;;;5.30;;
60257;SDS011;46115;44.484;11.314;2022-07-30T07:11:10;10.73;;;5.80;;
60257;SDS011;46115;44.484;11.314;2022-07-30T07:15:33;5.93;;;5.03;;
60257;SDS011;46115;44.484;11.314;2022-07-30T07:19:35;8.93;;;4.80;;
60257;SDS011;46115;44.484;11.314;2022-07-30T07:23:38;5.47;;;4.75;;
60257;SDS011;46115;44.484;11.314;2022-07-30T07:27:41;6.72;;;3.95;;
60257;SDS011;46115;44.484;11.314;2022-07-30T07:31:46;5.30;;;4.20;;
60257;SDS011;46115;44.484;11.314;2022-07-30T07:35:49;4.47;;;3.88;;
60257;SDS011;46115;44.484;11.314;2022-07-30T07:40:05;6.75;;;4.85;;
60257;SDS011;46115;44.484;11.314;2022-07-30T07:44:12;4.97;;;3.83;;
60257;SDS011;46115;44.484;11.314;2022-07-30T07:48:18;5.45;;;3.60;;
60257;SDS011;46115;44.484;11.314;2022-07-30T07:56:28;4.28;;;3.10;;
60257;SDS011;46115;44.484;11.314;2022-07-30T08:00:31;5.53;;;3.88;;
60257;SDS011;46115;44.484;11.314;2022-07-30T08:04:35;3.45;;;3.00;;
60257;SDS011;46115;44.484;11.314;2022-07-30T08:08:43;4.22;;;3.20;;
60257;SDS011;46115;44.484;11.314;2022-07-30T08:13:09;4.95;;;2.55;;
60257;SDS011;46115;44.484;11.314;2022-07-30T08:17:31;4.43;;;2.90;;
60257;SDS011;46115;44.484;11.314;2022-07-30T08:21:44;3.53;;;2.88;;
60257;SDS011;46115;44.484;11.314;2022-07-30T08:25:50;4.70;;;3.13;;
60257;SDS011;46115;44.484;11.314;2022-07-30T08:29:53;3.47;;;2.90;;
60257;SDS011;46115;44.484;11.314;2022-07-30T08:33:55;4.75;;;2.45;;
60257;SDS011;46115;44.484;11.314;2022-07-30T08:37:59;3.28;;;2.67;;
60257;SDS011;46115;44.484;11.314;2022-07-30T08:42:03;3.70;;;2.20;;
60257;SDS011;46115;44.484;11.314;2022-07-30T08:46:07;5.32;;;2.10;;
60257;SDS011;46115;44.484;11.314;2022-07-30T08:50:26;2.88;;;2.15;;
60257;SDS011;46115;44.484;11.314;2022-07-30T08:54:52;3.25;;;1.90;;
60257;SDS011;46115;44.484;11.314;2022-07-30T08:58:55;2.20;;;1.90;;
60257;SDS011;46115;44.484;11.314;2022-07-30T09:02:59;3.03;;;2.00;;
60257;SDS011;46115;44.484;11.314;2022-07-30T09:07:02;3.08;;;2.33;;
60257;SDS011;46115;44.484;11.314;2022-07-30T09:11:05;2.80;;;2.00;;
60257;SDS011;46115;44.484;11.314;2022-07-30T09:15:09;2.97;;;1.98;;
60257;SDS011;46115;44.484;11.314;2022-07-30T09:19:14;2.53;;;1.70;;
60257;SDS011;46115;44.484;11.314;2022-07-30T09:23:19;2.60;;;2.00;;
60257;SDS011;46115;44.484;11.314;2022-07-30T09:27:45;3.88;;;1.67;;
60257;SDS011;46115;44.484;11.314;2022-07-30T09:32:07;2.47;;;1.60;;
60257;SDS011;46115;44.484;11.314;2022-07-30T09:36:48;3.30;;;1.73;;
60257;SDS011;46115;44.484;11.314;2022-07-30T09:41:10;3.17;;;1.80;;
60257;SDS011;46115;44.484;11.314;2022-07-30T09:45:27;2.35;;;1.70;;
60257;SDS011;46115;44.484;11.314;2022-07-30T09:49:30;2.38;;;2.15;;
60257;SDS011;46115;44.484;11.314;2022-07-30T09:53:33;3.45;;;2.25;;
60257;SDS011;46115;44.484;11.314;2022-07-30T09:57:39;3.65;;;2.03;;
60257;SDS011;46115;44.484;11.314;2022-07-30T10:01:58;3.20;;;2.00;;
60257;SDS011;46115;44.484;11.314;2022-07-30T10:06:33;2.72;;;2.30;;
60257;SDS011;46115;44.484;11.314;2022-07-30T10:11:09;2.45;;;2.00;;
60257;SDS011;46115;44.484;11.314;2022-07-30T10:15:13;3.97;;;2.20;;
60257;SDS011;46115;44.484;11.314;2022-07-30T10:19:22;2.97;;;2.13;;
60257;SDS011;46115;44.484;11.314;2022-07-30T10:23:44;3.17;;;2.08;;
60257;SDS011;46115;44.484;11.314;2022-07-30T10:28:05;6.00;;;1.80;;
60257;SDS011;46115;44.484;11.314;2022-07-30T10:32:08;3.45;;;2.10;;
60257;SDS011;46115;44.484;11.314;2022-07-30T10:36:12;4.90;;;2.20;;
60257;SDS011;46115;44.484;11.314;2022-07-30T10:40:18;3.50;;;2.10;;
60257;SDS011;46115;44.484;11.314;2022-07-30T10:44:29;2.20;;;1.80;;
60257;SDS011;46115;44.484;11.314;2022-07-30T10:49:06;2.92;;;1.65;;
60257;SDS011;46115;44.484;11.314;2022-07-30T10:53:10;2.72;;;2.05;;
60257;SDS011;46115;44.484;11.314;2022-07-30T10:57:33;3.40;;;1.77;;
60257;SDS011;46115;44.484;11.314;2022-07-30T11:06:25;2.78;;;1.60;;
60257;SDS011;46115;44.484;11.314;2022-07-30T11:10:34;3.65;;;1.63;;
60257;SDS011;46115;44.484;11.314;2022-07-30T11:19:02;3.65;;;1.80;;
60257;SDS011;46115;44.484;11.314;2022-07-30T11:27:40;3.08;;;2.17;;
60257;SDS011;46115;44.484;11.314;2022-07-30T11:31:45;4.15;;;2.22;;
60257;SDS011;46115;44.484;11.314;2022-07-30T11:40:11;2.67;;;2.10;;
60257;SDS011;46115;44.484;11.314;2022-07-30T11:44:25;3.30;;;1.90;;
60257;SDS011;46115;44.484;11.314;2022-07-30T11:48:29;4.32;;;2.10;;
60257;SDS011;46115;44.484;11.314;2022-07-30T11:52:32;2.53;;;2.08;;
60257;SDS011;46115;44.484;11.314;2022-07-30T11:56:35;5.40;;;2.28;;
60257;SDS011;46115;44.484;11.314;2022-07-30T12:00:40;3.70;;;2.00;;
60257;SDS011;46115;44.484;11.314;2022-07-30T12:04:47;19.13;;;2.10;;
60257;SDS011;46115;44.484;11.314;2022-07-30T12:08:50;3.58;;;1.85;;
60257;SDS011;46115;44.484;11.314;2022-07-30T12:13:05;2.10;;;1.70;;
60257;SDS011;46115;44.484;11.314;2022-07-30T12:17:09;2.13;;;1.50;;
60257;SDS011;46115;44.484;11.314;2022-07-30T12:21:13;2.40;;;1.80;;
60257;SDS011;46115;44.484;11.314;2022-07-30T12:25:16;3.33;;;2.00;;
60257;SDS011;46115;44.484;11.314;2022-07-30T12:29:19;3.10;;;2.25;;
60257;SDS011;46115;44.484;11.314;2022-07-30T12:33:25;2.03;;;1.80;;
60257;SDS011;46115;44.484;11.314;2022-07-30T12:37:27;2.30;;;2.10;;
60257;SDS011;46115;44.484;11.314;2022-07-30T12:41:41;2.47;;;2.00;;
60257;SDS011;46115;44.484;11.314;2022-07-30T12:45:44;2.47;;;1.77;;
60257;SDS011;46115;44.484;11.314;2022-07-30T12:49:48;3.15;;;1.88;;
60257;SDS011;46115;44.484;11.314;2022-07-30T12:53:51;3.13;;;2.03;;
60257;SDS011;46115;44.484;11.314;2022-07-30T12:57:56;1.80;;;1.60;;
60257;SDS011;46115;44.484;11.314;2022-07-30T13:02:01;2.63;;;1.90;;
60257;SDS011;46115;44.484;11.314;2022-07-30T13:06:11;3.03;;;2.10;;
60257;SDS011;46115;44.484;11.314;2022-07-30T13:10:15;3.88;;;1.77;;
60257;SDS011;46115;44.484;11.314;2022-07-30T13:14:18;2.05;;;1.70;;
60257;SDS011;46115;44.484;11.314;2022-07-30T13:18:22;3.60;;;1.90;;
60257;SDS011;46115;44.484;11.314;2022-07-30T13:22:25;2.33;;;2.00;;
60257;SDS011;46115;44.484;11.314;2022-07-30T13:26:28;2.35;;;2.08;;
60257;SDS011;46115;44.484;11.314;2022-07-30T13:30:31;2.20;;;2.00;;
60257;SDS011;46115;44.484;11.314;2022-07-30T13:34:33;3.55;;;1.92;;
60257;SDS011;46115;44.484;11.314;2022-07-30T13:38:37;2.13;;;1.92;;
60257;SDS011;46115;44.484;11.314;2022-07-30T13:42:39;3.00;;;1.80;;
60257;SDS011;46115;44.484;11.314;2022-07-30T13:46:42;2.60;;;1.70;;
60257;SDS011;46115;44.484;11.314;2022-07-30T13:50:44;3.42;;;1.80;;
60257;SDS011;46115;44.484;11.314;2022-07-30T13:54:49;2.65;;;1.73;;
60257;SDS011;46115;44.484;11.314;2022-07-30T13:58:53;3.03;;;1.70;;
60257;SDS011;46115;44.484;11.314;2022-07-30T14:02:56;2.10;;;1.90;;
60257;SDS011;46115;44.484;11.314;2022-07-30T14:06:58;1.92;;;1.73;;
60257;SDS011;46115;44.484;11.314;2022-07-30T14:11:02;3.05;;;1.80;;
60257;SDS011;46115;44.484;11.314;2022-07-30T14:15:05;3.17;;;1.80;;
60257;SDS011;46115;44.484;11.314;2022-07-30T14:19:09;2.22;;;1.70;;
60257;SDS011;46115;44.484;11.314;2022-07-30T14:23:11;3.65;;;1.65;;
60257;SDS011;46115;44.484;11.314;2022-07-30T14:27:15;3.15;;;1.75;;
60257;SDS011;46115;44.484;11.314;2022-07-30T14:31:20;2.90;;;1.65;;
60257;SDS011;46115;44.484;11.314;2022-07-30T14:35:22;1.90;;;1.60;;
60257;SDS011;46115;44.484;11.314;2022-07-30T14:39:26;1.90;;;1.70;;
60257;SDS011;46115;44.484;11.314;2022-07-30T14:43:30;1.70;;;1.52;;
60257;SDS011;46115;44.484;11.314;2022-07-30T14:47:32;1.70;;;1.52;;
60257;SDS011;46115;44.484;11.314;2022-07-30T14:51:34;2.88;;;1.60;;
60257;SDS011;46115;44.484;11.314;2022-07-30T14:55:37;3.70;;;1.80;;
60257;SDS011;46115;44.484;11.314;2022-07-30T14:59:41;1.95;;;1.60;;
60257;SDS011;46115;44.484;11.314;2022-07-30T15:03:44;2.72;;;1.80;;
60257;SDS011;46115;44.484;11.314;2022-07-30T15:07:47;2.90;;;1.77;;
60257;SDS011;46115;44.484;11.314;2022-07-30T15:11:49;1.98;;;1.77;;
60257;SDS011;46115;44.484;11.314;2022-07-30T15:15:53;2.40;;;1.60;;
60257;SDS011;46115;44.484;11.314;2022-07-30T15:19:56;2.03;;;1.58;;
60257;SDS011;46115;44.484;11.314;2022-07-30T15:23:58;2.10;;;1.90;;
60257;SDS011;46115;44.484;11.314;2022-07-30T15:28:01;4.40;;;1.85;;
60257;SDS011;46115;44.484;11.314;2022-07-30T15:32:05;2.17;;;1.63;;
60257;SDS011;46115;44.484;11.314;2022-07-30T15:36:08;3.40;;;1.50;;
60257;SDS011;46115;44.484;11.314;2022-07-30T15:40:11;2.65;;;1.55;;
60257;SDS011;46115;44.484;11.314;2022-07-30T15:44:13;2.53;;;1.50;;
60257;SDS011;46115;44.484;11.314;2022-07-30T15:48:17;162.90;;;8.95;;
60257;SDS011;46115;44.484;11.314;2022-07-30T15:52:20;375.58;;;18.25;;
60257;SDS011;46115;44.484;11.314;2022-07-30T15:56:23;23.80;;;1.83;;
60257;SDS011;46115;44.484;11.314;2022-07-30T16:00:26;1.98;;;1.30;;
60257;SDS011;46115;44.484;11.314;2022-07-30T16:04:30;1.85;;;1.30;;
60257;SDS011;46115;44.484;11.314;2022-07-30T16:08:33;1.90;;;1.30;;
60257;SDS011;46115;44.484;11.314;2022-07-30T16:12:35;1.63;;;1.25;;
60257;SDS011;46115;44.484;11.314;2022-07-30T16:16:39;4.20;;;1.52;;
60257;SDS011;46115;44.484;11.314;2022-07-30T16:20:43;3.17;;;1.40;;
60257;SDS011;46115;44.484;11.314;2022-07-30T16:24:45;4.13;;;1.42;;
60257;SDS011;46115;44.484;11.314;2022-07-30T16:28:47;2.78;;;1.40;;
60257;SDS011;46115;44.484;11.314;2022-07-30T16:32:50;1.90;;;1.40;;
60257;SDS011;46115;44.484;11.314;2022-07-30T16:36:56;2.83;;;1.40;;
60257;SDS011;46115;44.484;11.314;2022-07-30T16:40:59;4.35;;;1.50;;
60257;SDS011;46115;44.484;11.314;2022-07-30T16:45:02;1.63;;;1.40;;
60257;SDS011;46115;44.484;11.314;2022-07-30T16:49:05;2.58;;;1.27;;
60257;SDS011;46115;44.484;11.314;2022-07-30T16:53:09;1.85;;;1.20;;
60257;SDS011;46115;44.484;11.314;2022-07-30T16:57:13;2.75;;;1.60;;
60257;SDS011;46115;44.484;11.314;2022-07-30T17:01:15;28.15;;;3.55;;
60257;SDS011;46115;44.484;11.314;2022-07-30T17:05:18;4.68;;;1.70;;
60257;SDS011;46115;44.484;11.314;2022-07-30T17:09:22;12.75;;;2.20;;
60257;SDS011;46115;44.484;11.314;2022-07-30T17:13:25;10.10;;;2.67;;
60257;SDS011;46115;44.484;11.314;2022-07-30T17:17:27;1.83;;;1.38;;
60257;SDS011;46115;44.484;11.314;2022-07-30T17:21:30;2.38;;;1.60;;
60257;SDS011;46115;44.484;11.314;2022-07-30T17:25:34;2.05;;;1.30;;
60257;SDS011;46115;44.484;11.314;2022-07-30T17:29:37;2.97;;;1.40;;
60257;SDS011;46115;44.484;11.314;2022-07-30T17:33:40;3.03;;;1.50;;
60257;SDS011;46115;44.484;11.314;2022-07-30T17:37:42;2.63;;;1.40;;
60257;SDS011;46115;44.484;11.314;2022-07-30T17:41:46;5.30;;;1.40;;
60257;SDS011;46115;44.484;11.314;2022-07-30T17:45:48;1.90;;;1.60;;
60257;SDS011;46115;44.484;11.314;2022-07-30T17:49:51;1.52;;;1.40;;
60257;SDS011;46115;44.484;11.314;2022-07-30T17:53:53;3.25;;;1.55;;
60257;SDS011;46115;44.484;11.314;2022-07-30T17:57:57;1.70;;;1.50;;
60257;SDS011;46115;44.484;11.314;2022-07-30T18:02:00;6.72;;;1.60;;
60257;SDS011;46115;44.484;11.314;2022-07-30T18:06:03;3.85;;;1.77;;
60257;SDS011;46115;44.484;11.314;2022-07-30T18:10:06;3.03;;;1.60;;
60257;SDS011;46115;44.484;11.314;2022-07-30T18:14:11;6.50;;;1.60;;
60257;SDS011;46115;44.484;11.314;2022-07-30T18:18:13;2.95;;;1.50;;
60257;SDS011;46115;44.484;11.314;2022-07-30T18:22:16;3.45;;;1.63;;
60257;SDS011;46115;44.484;11.314;2022-07-30T18:26:18;7.15;;;1.75;;
60257;SDS011;46115;44.484;11.314;2022-07-30T18:30:22;2.65;;;1.30;;
60257;SDS011;46115;44.484;11.314;2022-07-30T18:34:25;2.65;;;1.73;;
60257;SDS011;46115;44.484;11.314;2022-07-30T18:38:27;3.20;;;1.63;;
60257;SDS011;46115;44.484;11.314;2022-07-30T18:42:30;3.78;;;1.30;;
60257;SDS011;46115;44.484;11.314;2022-07-30T18:46:34;4.18;;;1.45;;
60257;SDS011;46115;44.484;11.314;2022-07-30T18:50:36;2.30;;;1.50;;
60257;SDS011;46115;44.484;11.314;2022-07-30T18:54:39;5.57;;;1.60;;
60257;SDS011;46115;44.484;11.314;2022-07-30T18:58:41;4.25;;;1.60;;
60257;SDS011;46115;44.484;11.314;2022-07-30T19:02:45;2.88;;;1.50;;
60257;SDS011;46115;44.484;11.314;2022-07-30T19:06:48;4.50;;;1.40;;
60257;SDS011;46115;44.484;11.314;2022-07-30T19:10:51;3.28;;;1.10;;
60257;SDS011;46115;44.484;11.314;2022-07-30T19:14:54;8.07;;;1.20;;
60257;SDS011;46115;44.484;11.314;2022-07-30T19:18:58;2.08;;;1.00;;
60257;SDS011;46115;44.484;11.314;2022-07-30T19:23:02;3.22;;;1.13;;
60257;SDS011;46115;44.484;11.314;2022-07-30T19:27:05;2.65;;;1.10;;
60257;SDS011;46115;44.484;11.314;2022-07-30T22:06:07;4.68;;;1.40;;
60257;SDS011;46115;44.484;11.314;2022-07-30T22:10:10;2.90;;;1.10;;
60257;SDS011;46115;44.484;11.314;2022-07-30T22:14:13;2.67;;;1.20;;
60257;SDS011;46115;44.484;11.314;2022-07-30T22:18:16;2.50;;;1.20;;
60257;SDS011;46115;44.484;11.314;2022-07-30T22:22:22;2.75;;;1.10;;
60257;SDS011;46115;44.484;11.314;2022-07-30T22:26:25;3.22;;;1.20;;
60257;SDS011;46115;44.484;11.314;2022-07-30T22:30:27;2.17;;;1.38;;
60257;SDS011;46115;44.484;11.314;2022-07-30T22:34:30;4.32;;;1.33;;
60257;SDS011;46115;44.484;11.314;2022-07-30T22:38:34;2.45;;;1.70;;
60257;SDS011;46115;44.484;11.314;2022-07-30T22:42:36;2.55;;;1.75;;
60257;SDS011;46115;44.484;11.314;2022-07-30T22:46:39;2.97;;;1.55;;
60257;SDS011;46115;44.484;11.314;2022-07-30T22:50:41;3.35;;;1.83;;
60257;SDS011;46115;44.484;11.314;2022-07-30T22:54:45;5.32;;;1.75;;
60257;SDS011;46115;44.484;11.314;2022-07-30T22:58:48;3.08;;;2.03;;
60257;SDS011;46115;44.484;11.314;2022-07-30T23:02:50;2.47;;;1.65;;
60257;SDS011;46115;44.484;11.314;2022-07-30T23:06:53;2.22;;;1.73;;
60257;SDS011;46115;44.484;11.314;2022-07-30T23:10:57;4.40;;;1.77;;
60257;SDS011;46115;44.484;11.314;2022-07-30T23:15:00;3.97;;;1.80;;
60257;SDS011;46115;44.484;11.314;2022-07-30T23:19:03;2.60;;;1.67;;
60257;SDS011;46115;44.484;11.314;2022-07-30T23:23:06;3.35;;;1.80;;
60257;SDS011;46115;44.484;11.314;2022-07-30T23:27:12;3.90;;;1.80;;
60257;SDS011;46115;44.484;11.314;2022-07-30T23:31:14;3.40;;;1.70;;
60257;SDS011;46115;44.484;11.314;2022-07-30T23:35:17;3.45;;;1.83;;
60257;SDS011;46115;44.484;11.314;2022-07-30T23:39:19;1.88;;;1.48;;
60257;SDS011;46115;44.484;11.314;2022-07-30T23:43:24;3.70;;;1.80;;
60257;SDS011;46115;44.484;11.314;2022-07-30T23:47:26;4.63;;;1.88;;
60257;SDS011;46115;44.484;11.314;2022-07-30T23:51:29;2.42;;;1.70;;
60257;SDS011;46115;44.484;11.314;2022-07-30T23:55:32;2.42;;;1.95;;
60257;SDS011;46115;44.484;11.314;2022-07-30T23:59:35;2.20;;;1.63;;
